createdAt,value
2018-08-22T00:01:41.704Z,98072.00
2018-08-22T00:04:13.414Z,98070.00
2018-08-22T00:06:45.142Z,98080.00
2018-08-22T00:09:16.816Z,98079.00
2018-08-22T00:11:48.487Z,98077.00
2018-08-22T00:14:20.377Z,98075.00
2018-08-22T00:16:51.987Z,98074.00
2018-08-22T00:19:23.648Z,98071.00
2018-08-22T00:21:55.447Z,98076.00
2018-08-22T00:24:27.065Z,98071.00
2018-08-22T00:26:58.733Z,98072.00
2018-08-22T00:29:30.618Z,98072.00
2018-08-22T00:32:02.578Z,98078.00
2018-08-22T00:34:34.311Z,98075.00
2018-08-22T00:37:06.045Z,98075.00
2018-08-22T00:39:37.658Z,98074.00
2018-08-22T00:42:09.385Z,98071.00
2018-08-22T00:44:41.040Z,98072.00
2018-08-22T00:47:12.695Z,98067.00
2018-08-22T00:49:44.735Z,98069.00
2018-08-22T00:52:16.558Z,98069.00
2018-08-22T00:54:48.353Z,98069.00
2018-08-22T00:57:20.120Z,98063.00
2018-08-22T00:59:52.049Z,98068.00
2018-08-22T01:02:23.732Z,98066.00
2018-08-22T01:04:55.538Z,98066.00
2018-08-22T01:07:27.254Z,98060.00
2018-08-22T01:09:59.116Z,98056.00
2018-08-22T01:12:30.928Z,98065.00
2018-08-22T01:15:02.534Z,98060.00
2018-08-22T01:17:34.328Z,98064.00
2018-08-22T01:20:06.973Z,98064.00
2018-08-22T01:22:38.764Z,98066.00
2018-08-22T01:25:10.669Z,98065.00
2018-08-22T01:27:45.536Z,98062.00
2018-08-22T01:30:17.316Z,98061.00
2018-08-22T01:32:48.964Z,98063.00
2018-08-22T01:35:20.697Z,98064.00
2018-08-22T01:37:52.378Z,98064.00
2018-08-22T01:40:24.144Z,98066.00
2018-08-22T01:42:55.972Z,98066.00
2018-08-22T01:45:27.687Z,98066.00
2018-08-22T01:47:59.321Z,98063.00
2018-08-22T01:50:31.284Z,98064.00
2018-08-22T01:53:03.066Z,98064.00
2018-08-22T01:55:34.977Z,98060.00
2018-08-22T01:58:06.756Z,98060.00
2018-08-22T02:00:38.421Z,98058.00
2018-08-22T02:03:10.356Z,98060.00
2018-08-22T02:05:42.048Z,98058.00
2018-08-22T02:08:13.765Z,98058.00
2018-08-22T02:10:45.442Z,98059.00
2018-08-22T02:13:17.114Z,98064.00
2018-08-22T02:15:48.997Z,98059.00
2018-08-22T02:18:20.641Z,98057.00
2018-08-22T02:20:52.288Z,98061.00
2018-08-22T02:23:24.121Z,98056.00
2018-08-22T02:25:55.788Z,98057.00
2018-08-22T02:28:27.462Z,98054.00
2018-08-22T02:30:59.242Z,98058.00
2018-08-22T02:33:30.857Z,98058.00
2018-08-22T02:36:02.614Z,98051.00
2018-08-22T02:38:34.405Z,98051.00
2018-08-22T02:41:06.221Z,98046.00
2018-08-22T02:43:37.992Z,98048.00
2018-08-22T02:46:09.752Z,98048.00
2018-08-22T02:48:46.263Z,98054.00
2018-08-22T02:51:18.081Z,98049.00
2018-08-22T02:53:49.884Z,98051.00
2018-08-22T02:56:22.062Z,98050.00
2018-08-22T02:58:53.684Z,98046.00
2018-08-22T03:01:25.422Z,98045.00
2018-08-22T03:03:57.210Z,98041.00
2018-08-22T03:06:28.862Z,98046.00
2018-08-22T03:09:00.697Z,98044.00
2018-08-22T03:11:32.453Z,98045.00
2018-08-22T03:14:04.122Z,98048.00
2018-08-22T03:16:35.867Z,98050.00
2018-08-22T03:19:07.554Z,98049.00
2018-08-22T03:21:39.286Z,98054.00
2018-08-22T03:24:11.143Z,98059.00
2018-08-22T03:26:42.810Z,98057.00
2018-08-22T03:29:14.486Z,98051.00
2018-08-22T03:31:46.268Z,98052.00
2018-08-22T03:34:17.913Z,98051.00
2018-08-22T03:36:49.632Z,98056.00
2018-08-22T03:39:21.404Z,98051.00
2018-08-22T03:41:53.033Z,98054.00
2018-08-22T03:44:24.908Z,98047.00
2018-08-22T03:46:56.719Z,98054.00
2018-08-22T03:49:28.354Z,98053.00
2018-08-22T03:52:00.118Z,98052.00
2018-08-22T03:54:32.028Z,98053.00
2018-08-22T03:57:03.950Z,98049.00
2018-08-22T03:59:35.995Z,98052.00
2018-08-22T04:02:07.740Z,98054.00
2018-08-22T04:04:39.534Z,98052.00
2018-08-22T04:07:11.253Z,98058.00
2018-08-22T04:09:42.940Z,98063.00
2018-08-22T04:12:14.593Z,98067.00
2018-08-22T04:14:46.443Z,98074.00
2018-08-22T04:17:18.201Z,98075.00
2018-08-22T04:19:50.078Z,98075.00
2018-08-22T04:22:21.814Z,98067.00
2018-08-22T04:24:53.716Z,98066.00
2018-08-22T04:27:25.475Z,98071.00
2018-08-22T04:29:57.110Z,98072.00
2018-08-22T04:32:28.772Z,98074.00
2018-08-22T04:35:00.426Z,98075.00
2018-08-22T04:37:32.186Z,98079.00
2018-08-22T04:40:03.841Z,98081.00
2018-08-22T04:42:35.567Z,98079.00
2018-08-22T04:45:07.422Z,98073.00
2018-08-22T04:47:39.239Z,98075.00
2018-08-22T04:50:10.876Z,98073.00
2018-08-22T04:52:42.671Z,98074.00
2018-08-22T04:55:14.518Z,98070.00
2018-08-22T04:57:46.148Z,98072.00
2018-08-22T05:00:17.982Z,98072.00
2018-08-22T05:02:49.809Z,98071.00
2018-08-22T05:05:21.658Z,98072.00
2018-08-22T05:07:53.477Z,98070.00
2018-08-22T05:10:25.237Z,98071.00
2018-08-22T05:12:56.895Z,98072.00
2018-08-22T05:15:28.646Z,98078.00
2018-08-22T05:18:00.316Z,98072.00
2018-08-22T05:20:32.069Z,98068.00
2018-08-22T05:23:04.137Z,98068.00
2018-08-22T05:25:35.885Z,98073.00
2018-08-22T05:28:07.751Z,98070.00
2018-08-22T05:30:39.508Z,98073.00
2018-08-22T05:33:11.170Z,98068.00
2018-08-22T05:35:42.822Z,98072.00
2018-08-22T05:38:14.599Z,98074.00
2018-08-22T05:40:46.634Z,98074.00
2018-08-22T05:43:18.226Z,98076.00
2018-08-22T05:45:49.881Z,98079.00
2018-08-22T05:48:21.737Z,98079.00
2018-08-22T05:50:53.484Z,98081.00
2018-08-22T05:53:25.257Z,98079.00
2018-08-22T05:55:57.036Z,98076.00
2018-08-22T05:58:28.800Z,98080.00
2018-08-22T06:01:00.552Z,98088.00
2018-08-22T06:03:32.313Z,98087.00
2018-08-22T06:06:04.168Z,98089.00
2018-08-22T06:08:35.909Z,98091.00
2018-08-22T06:11:07.746Z,98090.00
2018-08-22T06:13:39.430Z,98097.00
2018-08-22T06:16:11.195Z,98094.00
2018-08-22T06:18:43.028Z,98090.00
2018-08-22T06:21:14.816Z,98086.00
2018-08-22T06:23:46.665Z,98088.00
2018-08-22T06:26:18.493Z,98090.00
2018-08-22T06:28:50.293Z,98088.00
2018-08-22T06:31:21.942Z,98082.00
2018-08-22T06:33:53.731Z,98078.00
2018-08-22T06:36:25.402Z,98075.00
2018-08-22T06:38:57.290Z,98079.00
2018-08-22T06:41:29.107Z,98078.00
2018-08-22T06:44:01.045Z,98078.00
2018-08-22T06:46:32.829Z,98079.00
2018-08-22T06:49:04.457Z,98083.00
2018-08-22T06:51:36.199Z,98081.00
2018-08-22T06:54:08.108Z,98076.00
2018-08-22T06:56:39.746Z,98077.00
2018-08-22T06:59:11.390Z,98069.00
2018-08-22T07:01:43.180Z,98071.00
2018-08-22T07:04:14.806Z,98065.00
2018-08-22T07:06:46.795Z,98070.00
2018-08-22T07:09:18.761Z,98071.00
2018-08-22T07:11:50.506Z,98069.00
2018-08-22T07:14:22.158Z,98070.00
2018-08-22T07:16:53.893Z,98063.00
2018-08-22T07:19:25.748Z,98060.00
2018-08-22T07:21:57.558Z,98064.00
2018-08-22T07:24:29.302Z,98065.00
2018-08-22T07:27:01.141Z,98060.00
2018-08-22T07:29:32.801Z,98057.00
2018-08-22T07:32:04.579Z,98059.00
2018-08-22T07:34:36.307Z,98061.00
2018-08-22T07:37:07.977Z,98063.00
2018-08-22T07:39:39.717Z,98054.00
2018-08-22T07:42:11.629Z,98056.00
2018-08-22T07:44:43.389Z,98059.00
2018-08-22T07:47:15.043Z,98057.00
2018-08-22T07:49:46.673Z,98059.00
2018-08-22T07:52:18.332Z,98054.00
2018-08-22T07:54:50.115Z,98056.00
2018-08-22T07:57:24.015Z,98056.00
2018-08-22T07:59:55.719Z,98046.00
2018-08-22T08:02:27.323Z,98047.00
2018-08-22T08:04:59.408Z,98047.00
2018-08-22T08:07:31.243Z,98051.00
2018-08-22T08:10:02.902Z,98046.00
2018-08-22T08:12:39.957Z,98047.00
2018-08-22T08:15:11.738Z,98048.00
2018-08-22T08:17:43.580Z,98048.00
2018-08-22T08:20:15.486Z,98043.00
2018-08-22T08:22:47.196Z,98047.00
2018-08-22T08:25:18.938Z,98041.00
2018-08-22T08:27:50.716Z,98039.00
2018-08-22T08:30:22.374Z,98041.00
2018-08-22T08:32:54.140Z,98037.00
2018-08-22T08:35:25.988Z,98033.00
2018-08-22T08:37:57.881Z,98041.00
2018-08-22T08:40:29.533Z,98032.00
2018-08-22T08:43:01.421Z,98032.00
2018-08-22T08:45:33.280Z,98028.00
2018-08-22T08:48:04.915Z,98024.00
2018-08-22T08:50:36.745Z,98018.00
2018-08-22T08:53:08.553Z,98018.00
2018-08-22T08:55:40.141Z,98012.00
2018-08-22T08:58:12.852Z,98012.00
2018-08-22T09:00:44.561Z,98014.00
2018-08-22T09:03:16.257Z,98007.00
2018-08-22T09:05:47.945Z,98004.00
2018-08-22T09:08:19.913Z,98000.00
2018-08-22T09:10:51.949Z,98000.00
2018-08-22T09:13:23.711Z,98003.00
2018-08-22T09:15:55.386Z,97998.00
2018-08-22T09:18:27.261Z,97992.00
2018-08-22T09:20:59.027Z,97988.00
2018-08-22T09:23:30.656Z,97991.00
2018-08-22T09:26:02.336Z,97988.00
2018-08-22T09:28:34.089Z,97980.00
2018-08-22T09:31:05.836Z,97984.00
2018-08-22T09:33:37.590Z,97980.00
2018-08-22T09:36:09.345Z,97980.00
2018-08-22T09:38:41.000Z,97979.00
2018-08-22T09:41:12.750Z,97973.00
2018-08-22T09:43:44.430Z,97977.00
2018-08-22T09:46:16.074Z,97974.00
2018-08-22T09:48:47.821Z,97965.00
2018-08-22T09:51:19.628Z,97961.00
2018-08-22T09:53:51.253Z,97959.00
2018-08-22T09:56:22.993Z,97955.00
2018-08-22T09:58:54.678Z,97955.00
2018-08-22T10:01:31.371Z,97952.00
2018-08-22T10:04:03.610Z,97943.00
2018-08-22T10:06:42.372Z,97940.00
2018-08-22T10:09:24.265Z,97935.00
2018-08-22T10:11:56.262Z,97935.00
2018-08-22T10:14:28.101Z,97935.00
2018-08-22T10:16:59.712Z,97932.00
2018-08-22T10:19:31.468Z,97924.00
2018-08-22T10:22:03.263Z,97925.00
2018-08-22T10:24:34.893Z,97922.00
2018-08-22T10:27:06.741Z,97921.00
2018-08-22T10:29:38.539Z,97917.00
2018-08-22T10:32:10.151Z,97909.00
2018-08-22T10:34:41.822Z,97916.00
2018-08-22T10:37:13.766Z,97912.00
2018-08-22T10:39:45.630Z,97902.00
2018-08-22T10:42:17.310Z,97905.00
2018-08-22T10:44:49.087Z,97899.00
2018-08-22T10:47:20.850Z,97898.00
2018-08-22T10:49:52.478Z,97898.00
2018-08-22T10:52:24.142Z,97892.00
2018-08-22T10:54:55.974Z,97897.00
2018-08-22T10:57:27.640Z,97891.00
2018-08-22T10:59:59.397Z,97887.00
2018-08-22T11:02:31.153Z,97894.00
2018-08-22T11:05:02.843Z,97889.00
2018-08-22T11:07:34.614Z,97884.00
2018-08-22T11:10:06.437Z,97882.00
2018-08-22T11:12:38.339Z,97876.00
2018-08-22T11:15:10.209Z,97871.00
2018-08-22T11:17:42.063Z,97872.00
2018-08-22T11:20:13.901Z,97872.00
2018-08-22T11:23:01.756Z,97865.00
2018-08-22T11:25:49.953Z,97865.00
2018-08-22T11:28:37.582Z,97862.00
2018-08-22T11:31:25.521Z,97861.00
2018-08-22T11:34:13.409Z,97863.00
2018-08-22T11:36:56.533Z,97858.00
2018-08-22T11:39:28.204Z,97859.00
2018-08-22T11:42:00.014Z,97859.00
2018-08-22T11:44:31.858Z,97859.00
2018-08-22T11:47:03.807Z,97857.00
2018-08-22T11:49:35.577Z,97857.00
2018-08-22T11:52:07.364Z,97857.00
2018-08-22T11:54:39.020Z,97855.00
2018-08-22T11:57:10.866Z,97851.00
2018-08-22T11:59:42.622Z,97853.00
2018-08-22T12:02:14.294Z,97846.00
2018-08-22T12:04:46.033Z,97849.00
2018-08-22T12:07:17.713Z,97849.00
2018-08-22T12:09:49.369Z,97847.00
2018-08-22T12:12:21.157Z,97852.00
2018-08-22T12:14:52.917Z,97841.00
2018-08-22T12:17:24.558Z,97838.00
2018-08-22T12:19:56.538Z,97834.00
2018-08-22T12:22:28.153Z,97831.00
2018-08-22T12:24:59.822Z,97824.00
2018-08-22T12:27:31.564Z,97823.00
2018-08-22T12:30:03.238Z,97817.00
2018-08-22T12:32:34.997Z,97815.00
2018-08-22T12:35:07.151Z,97813.00
2018-08-22T12:37:38.943Z,97807.00
2018-08-22T12:40:10.922Z,97796.00
2018-08-22T12:42:42.545Z,97803.00
2018-08-22T12:45:14.331Z,97799.00
2018-08-22T12:47:46.053Z,97793.00
2018-08-22T12:50:17.724Z,97787.00
2018-08-22T12:52:49.560Z,97789.00
2018-08-22T12:55:21.238Z,97783.00
2018-08-22T12:57:53.699Z,97785.00
2018-08-22T13:00:25.337Z,97784.00
2018-08-22T13:02:57.155Z,97778.00
2018-08-22T13:05:28.882Z,97773.00
2018-08-22T13:08:00.546Z,97774.00
2018-08-22T13:10:32.330Z,97767.00
2018-08-22T13:13:04.047Z,97769.00
2018-08-22T13:15:35.709Z,97757.00
2018-08-22T13:18:07.653Z,97759.00
2018-08-22T13:20:39.630Z,97758.00
2018-08-22T13:23:11.450Z,97747.00
2018-08-22T13:25:43.263Z,97747.00
2018-08-22T13:28:15.105Z,97747.00
2018-08-22T13:30:47.065Z,97752.00
2018-08-22T13:33:18.733Z,97752.00
2018-08-22T13:35:50.634Z,97750.00
2018-08-22T13:38:22.387Z,97747.00
2018-08-22T13:40:54.124Z,97742.00
2018-08-22T13:43:25.968Z,97739.00
2018-08-22T13:45:57.639Z,97732.00
2018-08-22T13:48:29.411Z,97731.00
2018-08-22T13:51:01.138Z,97738.00
2018-08-22T13:53:32.947Z,97735.00
2018-08-22T13:56:04.762Z,97741.00
2018-08-22T13:58:36.514Z,97738.00
2018-08-22T14:01:08.287Z,97739.00
2018-08-22T14:03:40.050Z,97736.00
2018-08-22T14:06:11.789Z,97735.00
2018-08-22T14:08:43.462Z,97731.00
2018-08-22T14:11:15.211Z,97728.00
2018-08-22T14:13:47.073Z,97725.00
2018-08-22T14:16:18.854Z,97719.00
2018-08-22T14:18:50.511Z,97721.00
2018-08-22T14:21:22.294Z,97717.00
2018-08-22T14:23:54.055Z,97718.00
2018-08-22T14:29:09.461Z,97710.00
2018-08-22T14:31:41.193Z,97710.00
2018-08-22T14:34:12.842Z,97706.00
2018-08-22T14:36:44.778Z,97707.00
2018-08-22T14:39:16.485Z,97703.00
2018-08-22T14:41:48.214Z,97702.00
2018-08-22T14:44:20.106Z,97699.00
2018-08-22T14:46:51.953Z,97695.00
2018-08-22T14:49:23.775Z,97692.00
2018-08-22T14:51:55.562Z,97684.00
2018-08-22T14:54:27.396Z,97686.00
2018-08-22T14:56:59.074Z,97686.00
2018-08-22T14:59:30.917Z,97685.00
2018-08-22T15:02:02.594Z,97687.00
2018-08-22T15:04:34.337Z,97678.00
2018-08-22T15:07:06.147Z,97672.00
2018-08-22T15:09:37.771Z,97674.00
2018-08-22T15:12:09.560Z,97667.00
2018-08-22T15:14:41.370Z,97663.00
2018-08-22T15:17:13.281Z,97660.00
2018-08-22T15:19:44.894Z,97651.00
2018-08-22T15:22:16.726Z,97652.00
2018-08-22T15:24:48.507Z,97647.00
2018-08-22T15:27:20.124Z,97649.00
2018-08-22T15:29:51.924Z,97647.00
2018-08-22T15:32:23.754Z,97647.00
2018-08-22T15:34:56.746Z,97645.00
2018-08-22T15:37:28.406Z,97642.00
2018-08-22T15:40:00.119Z,97638.00
2018-08-22T15:42:31.706Z,97642.00
2018-08-22T15:45:03.505Z,97637.00
2018-08-22T15:47:35.411Z,97639.00
2018-08-22T15:50:08.063Z,97632.00
2018-08-22T15:52:39.713Z,97633.00
2018-08-22T15:55:15.143Z,97632.00
2018-08-22T15:58:03.058Z,97627.00
2018-08-22T16:00:45.818Z,97627.00
2018-08-22T16:03:17.509Z,97626.00
2018-08-22T16:05:49.908Z,97623.00
2018-08-22T16:08:23.507Z,97624.00
2018-08-22T16:10:55.207Z,97620.00
2018-08-22T16:13:32.294Z,97619.00
2018-08-22T16:16:05.085Z,97617.00
2018-08-22T16:18:36.843Z,97613.00
2018-08-22T16:21:09.322Z,97610.00
2018-08-22T16:23:41.149Z,97606.00
2018-08-22T16:26:12.975Z,97605.00
2018-08-22T16:28:56.036Z,97612.00
2018-08-22T16:31:33.200Z,97603.00
2018-08-22T16:34:04.975Z,97603.00
2018-08-22T16:36:36.658Z,97609.00
2018-08-22T16:39:09.445Z,97609.00
2018-08-22T16:41:41.329Z,97611.00
2018-08-22T16:44:13.064Z,97610.00
2018-08-22T16:46:44.806Z,97616.00
2018-08-22T16:49:16.621Z,97615.00
2018-08-22T16:51:48.459Z,97613.00
2018-08-22T16:54:20.179Z,97612.00
2018-08-22T16:56:51.949Z,97612.00
2018-08-22T16:59:23.614Z,97612.00
2018-08-22T17:01:55.374Z,97612.00
2018-08-22T17:04:27.030Z,97610.00
2018-08-22T17:07:04.758Z,97612.00
2018-08-22T17:09:36.386Z,97613.00
2018-08-22T17:12:08.275Z,97613.00
2018-08-22T17:14:39.985Z,97616.00
2018-08-22T17:17:11.663Z,97615.00
2018-08-22T17:19:43.513Z,97614.00
2018-08-22T17:22:15.298Z,97611.00
2018-08-22T17:24:47.014Z,97608.00
2018-08-22T17:27:18.826Z,97608.00
2018-08-22T17:29:50.463Z,97609.00
2018-08-22T17:32:22.297Z,97609.00
2018-08-22T17:34:54.057Z,97609.00
2018-08-22T17:37:25.866Z,97616.00
2018-08-22T17:39:57.608Z,97611.00
2018-08-22T17:42:29.326Z,97616.00
2018-08-22T17:45:01.138Z,97619.00
2018-08-22T17:47:32.758Z,97620.00
2018-08-22T17:50:10.127Z,97620.00
2018-08-22T17:52:41.817Z,97619.00
2018-08-22T17:55:13.554Z,97620.00
2018-08-22T17:57:45.215Z,97620.00
2018-08-22T18:00:17.054Z,97620.00
2018-08-22T18:02:49.851Z,97617.00
2018-08-22T18:05:21.714Z,97615.00
2018-08-22T18:07:53.393Z,97621.00
2018-08-22T18:10:25.145Z,97629.00
2018-08-22T18:13:01.698Z,97629.00
2018-08-22T18:15:33.373Z,97632.00
2018-08-22T18:18:05.314Z,97635.00
2018-08-22T18:20:44.757Z,97641.00
2018-08-22T18:23:16.877Z,97644.00
2018-08-22T18:25:53.718Z,97644.00
2018-08-22T18:28:25.691Z,97649.00
2018-08-22T18:30:57.852Z,97650.00
2018-08-22T18:33:29.814Z,97654.00
2018-08-22T18:36:11.262Z,97650.00
2018-08-22T18:38:47.772Z,97659.00
2018-08-22T18:41:19.507Z,97657.00
2018-08-22T18:43:51.501Z,97657.00
2018-08-22T18:46:23.269Z,97660.00
2018-08-22T18:48:54.997Z,97666.00
2018-08-22T18:51:26.907Z,97669.00
2018-08-22T18:53:58.538Z,97673.00
2018-08-22T18:56:30.190Z,97678.00
2018-08-22T18:59:12.973Z,97669.00
2018-08-22T19:01:44.781Z,97676.00
2018-08-22T19:04:16.409Z,97675.00
2018-08-22T19:06:48.265Z,97675.00
2018-08-22T19:09:20.074Z,97683.00
2018-08-22T19:11:51.802Z,97683.00
2018-08-22T19:14:38.498Z,97688.00
2018-08-22T19:17:10.285Z,97681.00
2018-08-22T19:19:44.465Z,97686.00
2018-08-22T19:22:19.014Z,97687.00
2018-08-22T19:25:05.735Z,97689.00
2018-08-22T19:27:37.490Z,97687.00
2018-08-22T19:30:09.697Z,97690.00
2018-08-22T19:32:41.386Z,97694.00
2018-08-22T19:35:13.179Z,97691.00
2018-08-22T19:37:50.076Z,97694.00
2018-08-22T19:40:22.017Z,97698.00
2018-08-22T19:42:53.874Z,97696.00
2018-08-22T19:45:25.605Z,97697.00
2018-08-22T19:47:57.085Z,97697.00
2018-08-22T19:50:30.212Z,97697.00
2018-08-22T19:53:01.960Z,97694.00
2018-08-22T19:55:34.283Z,97695.00
2018-08-22T19:58:06.245Z,97702.00
2018-08-22T20:00:38.104Z,97699.00
2018-08-22T20:03:09.909Z,97701.00
2018-08-22T20:05:54.343Z,97700.00
2018-08-22T20:08:30.865Z,97700.00
2018-08-22T20:11:02.651Z,97703.00
2018-08-22T20:13:49.201Z,97708.00
2018-08-22T20:16:22.087Z,97710.00
2018-08-22T20:18:57.028Z,97714.00
2018-08-22T20:21:33.765Z,97710.00
2018-08-22T20:24:07.173Z,97715.00
2018-08-22T20:26:39.774Z,97714.00
2018-08-22T20:29:11.450Z,97712.00
2018-08-22T20:31:43.179Z,97712.00
2018-08-22T20:34:16.601Z,97708.00
2018-08-22T20:36:50.054Z,97706.00
2018-08-22T20:39:21.955Z,97711.00
2018-08-22T20:41:57.707Z,97710.00
2018-08-22T20:44:29.321Z,97712.00
2018-08-22T20:47:01.074Z,97707.00
2018-08-22T20:49:32.866Z,97707.00
2018-08-22T20:52:04.689Z,97704.00
2018-08-22T20:54:36.490Z,97707.00
2018-08-22T20:57:08.458Z,97708.00
2018-08-22T20:59:40.324Z,97710.00
2018-08-22T21:02:12.134Z,97710.00
2018-08-22T21:04:43.813Z,97704.00
2018-08-22T21:07:17.802Z,97706.00
2018-08-22T21:09:49.692Z,97709.00
2018-08-22T21:12:21.579Z,97708.00
2018-08-22T21:14:53.201Z,97706.00
2018-08-22T21:17:24.864Z,97705.00
2018-08-22T21:19:56.601Z,97710.00
2018-08-22T21:22:30.920Z,97710.00
2018-08-22T21:25:02.754Z,97715.00
2018-08-22T21:27:34.843Z,97711.00
2018-08-22T21:30:06.770Z,97714.00
2018-08-22T21:32:38.702Z,97714.00
2018-08-22T21:35:28.605Z,97713.00
2018-08-22T21:38:08.967Z,97710.00
2018-08-22T21:40:40.837Z,97713.00
2018-08-22T21:43:13.857Z,97714.00
2018-08-22T21:45:47.966Z,97710.00
2018-08-22T21:48:22.982Z,97709.00
2018-08-22T21:50:54.690Z,97709.00
2018-08-22T21:53:26.533Z,97708.00
2018-08-22T21:55:58.453Z,97703.00
2018-08-22T21:58:30.162Z,97702.00
2018-08-22T22:01:02.321Z,97703.00
2018-08-22T22:03:34.086Z,97704.00
2018-08-22T22:06:06.213Z,97706.00
2018-08-22T22:08:42.567Z,97695.00
2018-08-22T22:11:14.153Z,97694.00
2018-08-22T22:13:46.022Z,97698.00
2018-08-22T22:16:17.881Z,97698.00
2018-08-22T22:18:49.562Z,97701.00
2018-08-22T22:21:21.173Z,97701.00
2018-08-22T22:23:52.964Z,97702.00
2018-08-22T22:26:24.772Z,97697.00
2018-08-22T22:28:56.636Z,97696.00
2018-08-22T22:31:28.330Z,97697.00
2018-08-22T22:34:03.922Z,97694.00
2018-08-22T22:36:35.705Z,97692.00
2018-08-22T22:39:24.051Z,97693.00
2018-08-22T22:41:55.880Z,97691.00
2018-08-22T22:44:27.726Z,97698.00
2018-08-22T22:46:59.530Z,97714.00
2018-08-22T22:49:31.290Z,97706.00
2018-08-22T22:52:19.478Z,97702.00
2018-08-22T22:54:52.617Z,97713.00
2018-08-22T22:57:24.603Z,97710.00
2018-08-22T22:59:56.406Z,97700.00
2018-08-22T23:02:28.369Z,97704.00
2018-08-22T23:05:00.820Z,97702.00
2018-08-22T23:07:33.689Z,97709.00
2018-08-22T23:10:06.817Z,97704.00
2018-08-22T23:12:39.909Z,97701.00
2018-08-22T23:15:14.628Z,97701.00
2018-08-22T23:17:48.547Z,97697.00
2018-08-22T23:20:42.163Z,97694.00
2018-08-22T23:23:35.113Z,97698.00
2018-08-22T23:26:14.150Z,97699.00
2018-08-22T23:28:46.172Z,97696.00
2018-08-22T23:31:20.228Z,97700.00
2018-08-22T23:33:51.987Z,97704.00
2018-08-22T23:36:23.707Z,97704.00
2018-08-22T23:38:55.341Z,97698.00
2018-08-22T23:41:27.198Z,97698.00
2018-08-22T23:43:59.125Z,97698.00
2018-08-22T23:46:30.881Z,97696.00
2018-08-22T23:49:02.641Z,97695.00
2018-08-22T23:51:34.399Z,97698.00
2018-08-22T23:54:06.084Z,97693.00
2018-08-22T23:56:38.124Z,97697.00
2018-08-22T23:59:09.697Z,97695.00
